Metar z połowy godziny Komunikat METAR ze strony awiacja.imgw.pl Metar G30 EPWA METAR EPWA 240430Z 16008KT 9999 BKN026 M04/M05 Q1024 NOSIG=